Accueil
METAR-TAF:

METAR-TAF

Aéroports :

Aéroport de Marseille Provence, Marignane

Marseille, France

latitude: 43-27N, longitude: 005-14E, altitude: 6 m

Observation

Le bulletin a été fait il y a 30 minutes, à 22:00 UTC
Vent 7 kt de est
Température 22°C
Humidité 57%
Pression 1010 hPa
Visibilité 10 km ou plus
Quelques nuages à une hauteur de 900 ft

METAR: LFML 222200Z AUTO 09007KT 9999 FEW009 22/13 Q1010 NOSIG

Heure: 00:30 (22:30 UTC)

Prévision

Le bulletin a été fait il y a 2 heures et 30 minutes, à 20:00 UTC
Prévision valable du 22 à 21 UTC au 24 à 03 UTC
Vent 9 kt de sud-est
Visibilité 10 km ou plus
pas de nuages en-dessous de 1500 mètres et pas de cumulonimbus.
Temporairement
du 23 à 10 UTC au 23 à 18 UTC
Vent 12 kt de sud/sud-ouest
Evoluant progressivement
du 24 à 00 UTC au 24 à 02 UTC
Vent 14 kt de nord-ouest

TAF: LFML 222000Z 2221/2403 13009KT CAVOK TX28/2314Z TN18/2303Z TEMPO 2310/2318 21012KT BECMG 2400/2402 31014KT

Observations et prévisions météorologiques de plus de 4000 aéroports (messages METAR et TAF).

Les stations disponibles sont représentées par des disques jaunes et rouges sur la carte.

Passer la souris dessus pour voir le nom de la station.

Cliquer dessus pour voir les observations et prévisions météorologiques.

Pour changer de carte: cliquez sur les boutons verts avec une croix noire pour zoomer, sur le bouton vert avec un tiret pour effectuer un zoom arrière, ou sur les flèches vertes pour les cartes adjacentes.


METAR-TAF: